Time;durP1;ratioP1;P1;durP2;ratioP2;P2;SDS_P1;SDS_P2;PMS_P1;PMS_P2;Temp;Humidity;BMP_temperature;BMP_pressure;BME280_temperature;BME280_humidity;BME280_pressure;Samples;Min_cycle;Max_cycle;Signal;HPM_P1;HPM_P2
2022/12/26 00:00:10;;;;;;;5.67;5.17;;;9.20;93.00;;;9.01;82.74;97898.44;5031267;28;20450;-79
2022/12/26 00:02:37;;;;;;;6.67;4.90;;;9.20;92.80;;;9.18;81.74;97904.22;5030686;28;20554;-77
2022/12/26 00:05:06;;;;;;;6.80;5.23;;;9.30;92.60;;;9.20;82.27;97910.22;5027075;28;20454;-80
2022/12/26 00:07:34;;;;;;;6.37;5.30;;;9.30;92.50;;;9.04;81.85;97904.22;5031467;28;20490;-81
2022/12/26 00:10:01;;;;;;;5.93;5.33;;;9.20;92.60;;;9.32;80.99;97919.31;5029373;28;20490;-76
2022/12/26 00:12:28;;;;;;;5.80;5.20;;;9.30;92.20;;;9.21;81.43;97920.78;5027974;28;20463;-78
2022/12/26 00:14:55;;;;;;;9.07;5.10;;;9.30;92.10;;;9.18;81.58;97915.00;5030138;28;20460;-80
2022/12/26 00:17:23;;;;;;;6.07;5.47;;;9.30;91.90;;;9.30;80.28;97917.88;5028900;28;20928;-80
2022/12/26 00:19:50;;;;;;;5.87;4.63;;;9.30;91.80;;;9.26;81.13;97917.47;5029004;28;20547;-77
2022/12/26 00:22:17;;;;;;;9.00;4.77;;;9.40;91.90;;;9.29;79.98;97922.44;5031018;28;20867;-79
2022/12/26 00:24:47;;;;;;;5.10;4.60;;;9.40;91.60;;;9.23;80.95;97911.66;5028958;28;20558;-80
2022/12/26 00:27:14;;;;;;;5.63;4.70;;;9.30;91.90;;;9.38;80.64;97919.53;5045966;28;20818;-78
2022/12/26 00:29:42;;;;;;;5.77;4.40;;;9.40;91.80;;;9.38;80.50;97920.34;5032304;28;20516;-78
2022/12/26 00:32:09;;;;;;;5.83;4.80;;;9.40;91.80;;;9.38;80.07;97919.53;5033672;28;20994;-78
2022/12/26 00:34:36;;;;;;;5.43;4.93;;;9.40;91.60;;;9.46;79.78;97911.22;5028428;28;20468;-79
2022/12/26 00:37:03;;;;;;;6.20;5.67;;;9.40;91.70;;;9.46;79.97;97913.91;5031658;28;20449;-78
2022/12/26 00:39:31;;;;;;;5.27;4.77;;;9.40;91.60;;;9.47;79.09;97918.25;5030830;28;20902;-76
2022/12/26 00:41:59;;;;;;;5.50;5.00;;;9.50;91.20;;;9.42;80.20;97920.75;5028220;28;20454;-80
2022/12/26 00:44:26;;;;;;;5.37;4.90;;;9.50;91.30;;;9.49;79.97;97916.22;5032308;28;20883;-79
2022/12/26 00:46:54;;;;;;;4.87;4.37;;;9.40;91.50;;;9.35;79.62;97905.44;5031170;28;20458;-78
2022/12/26 00:49:21;;;;;;;5.07;4.57;;;9.40;91.30;;;9.45;79.26;97920.34;5031515;28;20881;-78
2022/12/26 00:51:48;;;;;;;6.30;4.67;;;9.40;91.30;;;9.47;79.02;97920.94;5033864;28;20458;-79
2022/12/26 00:54:15;;;;;;;5.33;4.50;;;9.50;91.00;;;9.47;79.19;97910.16;5029838;28;20538;-80
2022/12/26 00:56:43;;;;;;;5.93;4.47;;;9.50;90.90;;;9.17;79.76;97919.56;5034159;28;20455;-80
2022/12/26 00:59:11;;;;;;;4.63;4.23;;;9.50;90.80;;;9.26;79.68;97909.38;5033124;28;20459;-77
2022/12/26 01:01:38;;;;;;;4.70;4.10;;;9.50;90.70;;;9.14;80.14;97914.59;5034362;28;20514;-79
2022/12/26 01:04:06;;;;;;;5.00;4.50;;;9.40;90.90;;;9.28;80.21;97915.38;5030226;28;21051;-78
2022/12/26 01:06:33;;;;;;;4.60;4.13;;;9.40;90.90;;;9.34;79.63;97913.72;5030143;28;20483;-77
2022/12/26 01:09:00;;;;;;;5.07;3.90;;;9.40;90.80;;;9.15;79.77;97915.41;5057902;28;20477;-71
2022/12/26 01:11:42;;;;;;;4.13;3.73;;;9.40;90.70;;;9.21;79.95;97930.75;5056413;28;20514;-71
2022/12/26 01:14:14;;;;;;;4.90;4.40;;;9.40;90.70;;;9.27;79.27;97923.72;5057971;28;20451;-72
2022/12/26 01:16:43;;;;;;;4.43;4.00;;;9.40;90.80;;;9.28;79.79;97928.88;5052661;28;20464;-80
2022/12/26 01:19:11;;;;;;;4.73;3.90;;;9.40;90.70;;;9.31;78.89;97927.63;5038483;28;20528;-76
2022/12/26 01:21:39;;;;;;;4.43;4.03;;;9.40;90.60;;;9.26;78.92;97922.06;5035796;28;20479;-75
2022/12/26 01:24:07;;;;;;;3.80;3.50;;;9.40;90.70;;;9.26;79.06;97914.78;5034271;28;20503;-78
2022/12/26 01:26:34;;;;;;;4.10;3.70;;;9.40;90.30;;;9.04;78.77;97869.19;5035206;28;20450;-79
2022/12/26 01:29:01;;;;;;;4.90;4.40;;;9.50;90.40;;;9.30;78.85;97924.09;5038357;28;20449;-78
2022/12/26 01:31:29;;;;;;;4.20;3.80;;;9.50;90.30;;;9.32;78.94;97926.59;5046910;28;20447;-79
2022/12/26 01:33:57;;;;;;;4.90;3.73;;;9.50;90.20;;;9.27;79.88;97913.72;5048019;28;20465;-80
2022/12/26 01:36:24;;;;;;;6.10;4.47;;;9.50;90.30;;;9.19;79.59;97911.28;5035070;28;20441;-79
2022/12/26 01:38:51;;;;;;;7.13;4.30;;;9.40;90.30;;;9.25;78.54;97905.03;5032404;28;20453;-74
2022/12/26 01:41:19;;;;;;;5.07;3.80;;;9.40;90.30;;;9.19;79.30;97919.38;5030043;28;20455;-78
2022/12/26 01:43:56;;;;;;;5.20;3.93;;;9.40;90.30;;;9.23;79.23;97909.81;5031870;28;20974;-78
2022/12/26 01:46:32;;;;;;;4.40;4.00;;;9.40;90.30;;;9.09;79.11;97903.59;5031771;28;20486;-81
2022/12/26 01:49:07;;;;;;;3.93;3.63;;;9.30;90.30;;;9.09;79.32;97905.47;5030223;28;20458;-76
2022/12/26 01:51:39;;;;;;;5.70;4.50;;;9.30;90.40;;;9.09;79.41;97916.25;5031790;28;20465;-76
2022/12/26 01:54:09;;;;;;;4.70;4.30;;;9.20;90.60;;;9.01;80.20;97917.28;5011684;28;20459;-78
2022/12/26 01:56:41;;;;;;;4.43;4.03;;;9.20;90.80;;;9.05;80.36;97915.81;5027626;28;20889;-79
2022/12/26 01:59:15;;;;;;;3.67;3.37;;;9.20;90.70;;;8.91;79.61;97904.22;5020961;28;20537;-77
2022/12/26 02:01:45;;;;;;;4.50;4.10;;;9.20;90.80;;;8.91;80.27;97920.41;5013392;28;20447;-77
2022/12/26 02:07:05;;;;;;;5.70;4.10;;;9.10;91.10;;;8.93;80.42;97913.75;5031787;28;20524;-78
2022/12/26 02:09:33;;;;;;;4.60;3.97;;;9.10;91.20;;;8.93;81.17;97921.84;5031859;28;20503;-79
2022/12/26 02:12:08;;;;;;;5.60;3.83;;;9.10;91.20;;;8.84;80.97;97908.78;5027357;28;20464;-80
2022/12/26 02:14:37;;;;;;;4.20;3.87;;;9.10;91.30;;;8.89;80.59;97917.09;5032389;28;20548;-80
2022/12/26 02:17:06;;;;;;;5.50;4.73;;;9.10;91.20;;;8.95;80.52;97902.78;5032348;28;20496;-79
2022/12/26 02:19:43;;;;;;;4.60;4.20;;;9.10;91.20;;;8.95;79.80;97905.47;5029302;28;20956;-78
2022/12/26 02:22:43;;;;;;;4.87;4.47;;;9.10;91.10;;;8.86;80.17;97904.00;5025478;28;20525;-80
2022/12/26 02:25:31;;;;;;;6.30;4.50;;;9.10;91.20;;;8.92;80.57;97913.97;5030625;28;20988;-79
2022/12/26 02:28:35;;;;;;;4.23;3.83;;;9.10;91.10;;;8.93;80.40;97919.13;5031827;28;20675;-78
2022/12/26 02:31:11;;;;;;;5.30;4.00;;;9.10;91.00;;;8.92;79.94;97920.19;5031324;28;20997;-79
2022/12/26 02:34:00;;;;;;;5.60;3.77;;;9.10;90.80;;;8.90;80.05;97924.13;5031284;28;20443;-79
2022/12/26 02:36:50;;;;;;;4.03;3.73;;;9.10;90.90;;;8.87;79.93;97909.19;5026907;28;20478;-79
2022/12/26 02:39:37;;;;;;;5.70;4.30;;;9.10;90.80;;;8.95;79.63;97902.78;5012831;28;20439;-79
2022/12/26 02:42:16;;;;;;;5.03;4.27;;;9.10;90.70;;;8.88;79.79;97891.19;5012635;28;21072;-78
2022/12/26 02:47:45;;;;;;;5.20;4.30;;;9.20;90.60;;;8.97;79.65;97903.41;5031385;28;20444;-79
2022/12/26 03:13:11;;;;;;;4.47;4.07;;;9.20;90.30;;;9.09;79.06;97914.38;5023846;28;20505;-80
2022/12/26 03:18:34;;;;;;;5.00;4.60;;;9.20;90.50;;;9.13;78.55;97912.09;5031702;28;20448;-79
2022/12/26 03:21:05;;;;;;;5.27;4.77;;;9.20;90.40;;;9.24;78.21;97897.16;5028278;28;20448;-78
2022/12/26 03:23:35;;;;;;;4.80;4.40;;;9.20;90.30;;;9.17;78.07;97894.44;5030987;28;20453;-79
2022/12/26 03:30:47;;;;;;;4.43;4.00;;;9.20;90.20;;;9.27;77.63;97905.66;5030190;28;20445;-79
2022/12/26 03:31:38;;;;;;;5.00;4.50;;;9.30;90.00;;;9.22;77.67;97908.16;5030957;28;20446;-79
2022/12/26 03:34:18;;;;;;;4.63;4.23;;;9.20;90.00;;;9.24;78.22;97919.56;5029654;28;20463;-76
2022/12/26 03:37:16;;;;;;;5.20;4.70;;;9.20;90.30;;;9.21;77.90;97917.28;5030245;28;20497;-79
2022/12/26 04:20:06;;;;;;;5.37;3.80;;;10.00;84.90;;;9.90;73.84;97908.81;5038962;28;20819;-79
2022/12/26 04:45:12;;;;;;;4.50;3.80;;;10.20;84.00;;;10.17;72.50;97906.81;5036650;28;20472;-79
2022/12/26 04:50:10;;;;;;;3.73;3.43;;;10.20;84.00;;;10.23;73.28;97904.28;5036266;28;20448;-79
2022/12/26 04:50:26;;;;;;;3.50;3.20;;;10.20;84.00;;;10.03;73.02;97907.91;5037132;28;20926;-82
2022/12/26 04:52:59;;;;;;;6.33;4.07;;;10.20;83.90;;;10.13;73.37;97913.69;5037210;28;20855;-79
2022/12/26 04:55:28;;;;;;;3.10;2.90;;;10.20;84.00;;;10.08;73.78;97913.50;5036709;28;20488;-80
2022/12/26 04:57:56;;;;;;;3.43;3.13;;;10.20;84.00;;;10.09;73.16;97915.16;5037237;28;20799;-78
2022/12/26 05:00:26;;;;;;;3.43;3.13;;;10.20;84.10;;;10.09;73.07;97925.97;5036184;28;21078;-80
2022/12/26 05:11:24;;;;;;;5.23;3.23;;;10.30;83.90;;;10.31;73.06;97918.38;5034937;28;20448;-77
2022/12/26 05:13:52;;;;;;;4.30;3.33;;;10.40;83.90;;;10.20;72.62;97914.47;5035406;28;20936;-80
2022/12/26 05:30:19;;;;;;;4.47;3.63;;;10.30;83.70;;;10.23;73.14;97909.69;5032457;28;20443;-79
2022/12/26 05:35:33;;;;;;;4.20;3.70;;;10.40;83.70;;;10.13;73.85;97905.59;5032785;28;20475;-77
2022/12/26 05:38:00;;;;;;;4.53;3.67;;;10.30;83.80;;;10.16;73.59;97905.16;5033743;28;20593;-81
2022/12/26 05:40:27;;;;;;;3.93;3.23;;;10.40;83.70;;;10.24;72.74;97895.97;5033307;28;20464;-79
2022/12/26 05:42:54;;;;;;;4.97;2.97;;;10.50;83.70;;;10.23;73.55;97896.19;5033342;28;20561;-80
2022/12/26 05:45:21;;;;;;;3.30;2.90;;;10.50;83.50;;;10.32;73.11;97892.19;5032536;28;21017;-79
2022/12/26 05:47:50;;;;;;;6.50;3.10;;;10.50;83.80;;;10.30;72.89;97897.00;5031382;28;20844;-80
2022/12/26 05:50:17;;;;;;;2.97;2.77;;;10.50;83.50;;;10.30;72.60;97894.28;5033341;28;20551;-79
2022/12/26 05:52:44;;;;;;;3.17;2.90;;;10.50;83.40;;;10.54;71.64;97890.00;5033310;28;20913;-81
2022/12/26 05:55:11;;;;;;;3.20;2.83;;;10.60;83.30;;;10.49;71.90;97890.66;5031790;28;20947;-79
2022/12/26 05:57:38;;;;;;;5.00;3.67;;;10.60;83.20;;;10.53;71.86;97891.06;5032845;28;20957;-76
2022/12/26 06:00:07;;;;;;;3.50;2.90;;;10.60;83.30;;;10.42;71.80;97898.00;5033247;28;20470;-79
2022/12/26 06:02:34;;;;;;;3.40;3.10;;;10.60;83.20;;;10.44;72.50;97901.28;5029567;28;20445;-79
2022/12/26 06:05:03;;;;;;;4.57;3.80;;;10.60;83.10;;;10.54;71.74;97895.41;5032175;28;20970;-75
2022/12/26 06:07:31;;;;;;;3.47;2.93;;;10.70;83.10;;;10.46;71.86;97896.50;5031839;28;20449;-80
2022/12/26 06:09:58;;;;;;;3.40;3.03;;;10.70;82.90;;;10.57;72.13;97899.56;5029955;28;20483;-78
2022/12/26 06:12:25;;;;;;;3.73;3.43;;;10.70;82.90;;;10.60;71.23;97901.81;5029897;28;20454;-80
2022/12/26 06:14:52;;;;;;;4.70;4.20;;;10.70;82.90;;;10.60;71.85;97899.13;5031833;28;20488;-78
2022/12/26 06:17:19;;;;;;;3.27;2.97;;;10.70;82.90;;;10.68;71.72;97898.84;5029329;28;20453;-80
2022/12/26 06:19:46;;;;;;;3.80;3.10;;;10.70;82.90;;;10.68;71.55;97898.84;5032537;28;20515;-79
2022/12/26 06:22:15;;;;;;;3.47;3.10;;;10.70;83.10;;;10.72;71.12;97886.56;5030993;28;20554;-79
2022/12/26 06:24:42;;;;;;;3.00;2.80;;;10.80;82.80;;;10.58;71.29;97874.19;5031701;28;20476;-76
2022/12/26 06:27:09;;;;;;;3.30;2.87;;;10.80;82.70;;;10.75;71.02;97886.13;5031550;28;20543;-79
2022/12/26 06:29:36;;;;;;;4.37;3.27;;;10.80;82.60;;;10.74;70.83;97873.66;5032461;28;20994;-79
2022/12/26 06:32:05;;;;;;;3.60;3.30;;;10.90;82.50;;;10.70;71.17;97869.75;5030308;28;21246;-79
2022/12/26 06:34:32;;;;;;;3.20;2.90;;;10.90;82.40;;;10.71;71.43;97868.69;5030391;28;20448;-79
2022/12/26 06:36:59;;;;;;;3.00;2.80;;;10.90;82.50;;;10.84;70.45;97864.22;5032135;28;20856;-78
2022/12/26 06:39:28;;;;;;;3.20;2.90;;;10.90;82.40;;;10.71;70.84;97874.09;5031331;28;20450;-79
2022/12/26 06:41:55;;;;;;;3.60;3.30;;;10.90;82.30;;;10.78;71.08;97890.25;5031527;28;20490;-76
2022/12/26 06:44:22;;;;;;;3.90;3.23;;;10.90;82.70;;;10.71;71.22;97884.91;5030207;28;20485;-79
2022/12/26 06:46:49;;;;;;;3.67;3.37;;;10.90;82.30;;;10.74;70.97;97887.16;5028988;28;20487;-78
2022/12/26 06:49:16;;;;;;;3.27;2.97;;;10.90;82.40;;;10.72;70.88;97896.53;5031011;28;20500;-78
2022/12/26 06:51:44;;;;;;;3.07;2.87;;;10.80;82.50;;;10.76;71.19;97901.28;5032330;28;20531;-79
2022/12/26 06:54:11;;;;;;;3.90;3.07;;;10.90;82.40;;;10.57;71.10;97877.94;5028328;28;20480;-79
2022/12/26 06:56:40;;;;;;;2.90;2.60;;;10.90;82.40;;;10.71;71.60;97894.88;5030632;28;20450;-77
2022/12/26 06:59:07;;;;;;;4.10;3.10;;;10.90;82.60;;;10.90;70.47;97893.06;5031964;28;21054;-79
2022/12/26 07:01:35;;;;;;;4.97;3.80;;;10.90;82.60;;;10.71;71.40;97882.22;5026831;28;20492;-80
2022/12/26 07:04:03;;;;;;;4.10;3.67;;;10.90;82.50;;;10.94;70.71;97899.69;5025292;28;20481;-79
2022/12/26 07:06:32;;;;;;;3.70;3.10;;;10.90;82.50;;;10.90;70.68;97906.59;5035000;28;20554;-81
2022/12/26 07:09:03;;;;;;;3.30;3.00;;;11.00;82.40;;;10.86;70.84;97908.09;5030421;28;20455;-80
2022/12/26 07:11:32;;;;;;;4.00;3.60;;;11.00;82.40;;;10.85;71.20;97911.84;5033106;28;20503;-81
2022/12/26 07:14:02;;;;;;;3.40;3.10;;;11.00;82.50;;;10.79;70.57;97910.84;5032603;28;20457;-81
2022/12/26 07:16:29;;;;;;;3.37;3.07;;;11.00;82.30;;;10.77;71.04;97904.81;5029860;28;20447;-81
2022/12/26 07:18:58;;;;;;;3.20;2.90;;;11.00;82.30;;;10.85;70.64;97917.25;5031179;28;21154;-80
2022/12/26 07:21:26;;;;;;;4.63;3.17;;;11.00;82.30;;;10.85;70.74;97914.53;5030647;28;20440;-80
2022/12/26 07:23:55;;;;;;;4.10;3.70;;;11.00;82.30;;;10.37;70.82;97851.03;5031406;28;20445;-77
2022/12/26 07:26:23;;;;;;;3.70;3.30;;;11.00;82.40;;;10.70;71.57;97910.28;5026369;28;20547;-81
2022/12/26 07:28:54;;;;;;;3.47;3.20;;;10.90;82.40;;;10.79;71.26;97920.81;5029387;28;20453;-77
2022/12/26 07:31:23;;;;;;;3.90;3.20;;;10.90;82.40;;;10.86;70.74;97927.00;5049156;28;20451;-77
2022/12/26 07:33:52;;;;;;;4.43;3.20;;;10.90;82.70;;;10.80;71.24;97914.34;5041933;28;20465;-78
2022/12/26 07:36:20;;;;;;;4.00;3.17;;;10.90;82.60;;;10.67;70.94;97896.38;5049860;28;20440;-75
2022/12/26 07:38:48;;;;;;;3.60;3.30;;;10.90;82.50;;;10.79;71.48;97912.69;5051678;28;20450;-82
2022/12/26 07:44:00;;;;;;;5.27;3.53;;;10.90;82.40;;;10.97;70.79;97930.84;5025924;28;20463;-80
2022/12/26 07:46:29;;;;;;;3.43;3.13;;;10.90;82.50;;;10.77;71.13;97932.66;5030723;28;20582;-82
2022/12/26 07:48:57;;;;;;;3.57;3.27;;;10.90;82.50;;;10.90;70.95;97934.44;5030180;28;20865;-81
2022/12/26 07:51:24;;;;;;;3.07;2.80;;;10.90;82.50;;;10.99;70.75;97937.69;5029301;28;20446;-82
2022/12/26 07:53:51;;;;;;;7.00;3.27;;;11.00;82.80;;;10.80;71.28;97931.41;5028904;28;20995;-81
2022/12/26 07:56:18;;;;;;;3.03;2.73;;;11.00;82.40;;;10.83;71.47;97946.34;5028418;28;21028;-80
2022/12/26 07:58:48;;;;;;;5.40;3.53;;;10.90;82.50;;;10.98;71.16;97938.72;5029270;28;20471;-81
2022/12/26 08:01:16;;;;;;;4.50;3.90;;;11.00;82.70;;;10.85;71.38;97949.66;5031208;28;20457;-77
2022/12/26 08:03:45;;;;;;;3.90;3.60;;;11.00;82.60;;;10.94;70.67;97942.13;5031388;28;20490;-81
2022/12/26 08:06:12;;;;;;;3.43;3.13;;;11.00;82.60;;;10.83;71.55;97940.94;5030961;28;20473;-82
2022/12/26 08:08:39;;;;;;;5.20;3.53;;;10.90;82.60;;;10.84;71.73;97945.28;5029497;28;20965;-80
2022/12/26 08:11:08;;;;;;;5.20;4.00;;;10.90;82.80;;;10.94;71.38;97942.13;5026402;28;20480;-78
2022/12/26 08:13:35;;;;;;;4.70;3.20;;;10.90;82.90;;;10.89;71.51;97937.38;5027969;28;20869;-81
2022/12/26 08:16:06;;;;;;;3.40;3.10;;;11.00;82.80;;;11.05;71.03;97944.09;5029954;28;20941;-80
2022/12/26 08:18:34;;;;;;;3.57;3.30;;;11.10;83.00;;;11.05;71.44;97942.22;5031577;28;20490;-80
2022/12/26 08:21:03;;;;;;;6.07;3.80;;;11.00;83.00;;;10.99;71.22;97945.78;5030826;28;20456;-79
2022/12/26 08:23:30;;;;;;;4.10;3.60;;;11.10;82.80;;;10.95;71.28;97957.28;5031526;28;20473;-83
2022/12/26 08:25:58;;;;;;;3.90;3.60;;;11.00;82.90;;;10.92;71.50;97945.03;5029582;28;20471;-81
2022/12/26 08:28:25;;;;;;;3.83;3.40;;;11.00;83.00;;;10.75;72.46;97950.13;5030265;28;21101;-80
2022/12/26 08:30:52;;;;;;;3.33;3.03;;;11.00;83.00;;;10.85;72.09;97955.88;5029082;28;20457;-80
2022/12/26 08:33:19;;;;;;;5.13;3.97;;;11.00;83.00;;;10.78;72.34;97944.31;5032879;28;21001;-78
2022/12/26 08:35:47;;;;;;;3.83;3.43;;;11.00;83.10;;;10.89;71.83;97950.88;5031146;28;20444;-82
2022/12/26 08:38:16;;;;;;;3.33;3.03;;;11.00;83.00;;;11.01;71.22;97941.03;5030716;28;20512;-81
2022/12/26 08:40:43;;;;;;;4.00;3.70;;;11.00;83.00;;;10.95;71.36;97950.00;5030760;28;20474;-81
2022/12/26 08:43:10;;;;;;;4.20;3.80;;;11.10;82.90;;;11.03;71.29;97951.59;5030958;28;20478;-82
2022/12/26 08:45:37;;;;;;;4.60;4.10;;;11.10;82.80;;;11.00;71.13;97952.03;5024117;28;20488;-80
2022/12/26 08:48:05;;;;;;;4.47;4.03;;;11.10;82.90;;;11.19;71.07;97953.75;5021239;28;20488;-79
2022/12/26 08:50:32;;;;;;;4.43;4.03;;;11.10;83.00;;;11.29;70.74;97961.34;5032431;28;20469;-79
2022/12/26 08:52:59;;;;;;;4.50;4.10;;;11.20;83.10;;;11.16;72.01;97977.72;5030988;28;20456;-81
2022/12/26 08:55:27;;;;;;;4.67;4.07;;;11.20;83.30;;;11.20;71.76;97977.03;5034095;28;20542;-77
2022/12/26 08:57:55;;;;;;;4.30;3.90;;;11.30;83.50;;;11.16;72.55;97980.44;5036184;28;20860;-80
2022/12/26 09:00:25;;;;;;;6.50;3.93;;;11.20;83.80;;;10.95;73.34;97966.22;5033344;28;20511;-82
2022/12/26 09:02:52;;;;;;;4.47;4.07;;;11.20;83.90;;;11.17;72.59;97979.38;5033673;28;20579;-81
2022/12/26 09:05:19;;;;;;;5.30;3.90;;;11.30;83.80;;;11.12;73.04;97984.59;5032558;28;20883;-77
2022/12/26 09:07:46;;;;;;;3.90;3.50;;;11.30;83.90;;;11.02;73.08;97976.97;5033388;28;20448;-78
2022/12/26 09:10:13;;;;;;;5.23;3.80;;;11.30;83.70;;;11.15;73.20;97974.19;5033962;28;20458;-81
2022/12/26 09:12:42;;;;;;;5.17;3.50;;;11.30;83.90;;;11.12;72.96;97987.31;5035916;28;20515;-81
2022/12/26 09:15:10;;;;;;;4.80;3.73;;;11.40;83.60;;;11.30;72.68;97967.59;5030200;28;20487;-75
2022/12/26 09:17:37;;;;;;;4.00;3.33;;;11.50;83.80;;;11.67;71.85;97966.84;5023234;28;20567;-80
2022/12/26 09:20:06;;;;;;;4.77;4.27;;;11.60;83.80;;;11.94;71.24;97972.00;5031764;28;20551;-80
2022/12/26 09:22:53;;;;;;;4.10;3.50;;;11.80;83.80;;;11.86;70.37;97976.63;5035294;28;20943;-81
2022/12/26 09:25:25;;;;;;;5.30;4.73;;;11.90;83.00;;;11.68;71.02;97979.34;5034661;28;20461;-77
2022/12/26 09:27:53;;;;;;;3.23;2.83;;;11.80;83.00;;;11.55;71.13;97974.88;5034967;28;20602;-80
2022/12/26 09:30:22;;;;;;;3.57;3.27;;;11.80;83.10;;;11.64;71.63;97978.13;5032584;28;20485;-82
2022/12/26 09:32:50;;;;;;;3.83;3.50;;;11.80;83.30;;;11.67;71.67;97972.25;5034944;28;20448;-80
2022/12/26 09:35:17;;;;;;;5.30;3.53;;;11.80;83.60;;;11.65;71.46;97977.06;5033780;28;20450;-80
2022/12/26 09:37:44;;;;;;;3.87;3.20;;;11.80;83.40;;;11.82;70.78;97971.88;5033975;28;20481;-79
2022/12/26 09:40:24;;;;;;;5.37;3.80;;;11.80;83.30;;;11.57;71.77;97973.59;5033720;28;20456;-82
2022/12/26 09:43:09;;;;;;;4.63;3.80;;;11.80;83.30;;;11.44;72.28;97981.84;5032706;28;20448;-82
2022/12/26 09:45:55;;;;;;;6.37;3.50;;;11.70;83.50;;;11.48;71.88;97974.94;5033494;28;20990;-78
2022/12/26 09:48:32;;;;;;;5.93;3.30;;;11.60;83.50;;;11.40;72.59;97972.50;5013027;28;20938;-81
2022/12/26 09:50:59;;;;;;;6.63;3.37;;;11.60;83.70;;;11.43;72.31;97977.47;5015984;28;20662;-83
2022/12/26 09:53:33;;;;;;;4.83;4.33;;;11.60;83.70;;;11.40;72.58;97983.34;5017537;28;20473;-80
2022/12/26 09:56:06;;;;;;;3.70;3.30;;;11.60;83.70;;;11.10;72.20;97924.50;5016197;28;20445;-83
2022/12/26 09:58:42;;;;;;;4.70;3.73;;;11.60;83.60;;;11.59;71.59;97985.00;5026592;28;20466;-78
2022/12/26 10:01:14;;;;;;;4.10;3.70;;;11.70;83.40;;;11.55;72.27;97980.31;5028015;28;20496;-78
2022/12/26 10:03:44;;;;;;;4.57;3.83;;;11.70;83.80;;;11.27;73.31;97989.69;5032870;28;21003;-81
2022/12/26 10:06:16;;;;;;;5.93;4.10;;;11.60;83.80;;;11.38;72.65;97997.09;5029626;28;20472;-80
2022/12/26 10:09:11;;;;;;;3.77;3.37;;;11.50;83.80;;;11.53;72.48;97998.63;5032989;28;20493;-82
2022/12/26 10:11:53;;;;;;;5.13;3.70;;;11.60;84.00;;;11.55;71.96;98005.47;5031721;28;20489;-76
2022/12/26 10:14:35;;;;;;;5.60;3.87;;;11.60;83.70;;;11.61;71.83;98001.03;5030201;28;20460;-81
2022/12/26 10:17:13;;;;;;;4.30;3.73;;;11.70;83.60;;;11.66;71.41;98014.72;5033426;28;20786;-79
2022/12/26 10:20:08;;;;;;;5.27;4.23;;;11.70;83.70;;;11.48;73.96;98023.66;5033558;28;20448;-79
2022/12/26 10:23:08;;;;;;;8.20;4.10;;;11.60;84.50;;;11.19;76.27;98032.16;5033325;28;20466;-82
2022/12/26 10:25:43;;;;;;;4.63;4.13;;;11.40;85.70;;;10.94;77.95;98034.84;5024142;28;20473;-83
2022/12/26 10:28:29;;;;;;;5.20;4.50;;;11.20;87.80;;;10.73;79.14;98028.72;5038741;28;20445;-82
2022/12/26 10:31:02;;;;;;;8.17;4.60;;;11.10;89.60;;;10.78;79.73;98047.00;5031955;28;20467;-82
2022/12/26 10:33:38;;;;;;;4.00;3.63;;;11.00;90.40;;;10.69;80.41;98038.31;5032599;28;20509;-82
2022/12/26 10:36:08;;;;;;;5.00;4.50;;;10.90;90.90;;;10.68;80.08;98044.75;5031567;28;20530;-82
2022/12/26 10:38:41;;;;;;;5.33;4.83;;;10.80;91.30;;;10.09;80.39;97961.06;5031833;28;20481;-81
2022/12/26 10:41:14;;;;;;;5.83;4.87;;;10.80;91.70;;;10.63;81.29;98049.97;5034929;28;20433;-82
2022/12/26 10:43:43;;;;;;;4.87;4.40;;;10.80;92.10;;;10.61;81.25;98052.91;5039973;28;20454;-78
2022/12/26 10:46:44;;;;;;;6.40;4.40;;;10.70;92.60;;;10.60;81.72;98053.09;5032364;28;20468;-79
2022/12/26 10:49:12;;;;;;;6.70;5.30;;;10.70;92.80;;;10.42;82.88;98059.19;5023596;28;20454;-81
2022/12/26 10:51:40;;;;;;;5.20;4.70;;;10.70;93.50;;;10.50;83.14;98067.06;5032552;28;20802;-81
2022/12/26 10:54:16;;;;;;;5.60;4.87;;;10.70;93.80;;;10.51;83.45;98066.03;5031805;28;20457;-83
2022/12/26 10:56:45;;;;;;;7.13;5.73;;;10.60;94.30;;;10.42;85.00;98062.75;5040474;28;20491;-82
2022/12/26 10:59:17;;;;;;;7.20;5.83;;;10.60;95.30;;;10.27;85.17;98073.75;5030559;28;20905;-82
2022/12/26 11:01:47;;;;;;;6.50;5.90;;;10.60;95.40;;;10.23;85.91;98069.81;5030354;28;20955;-81
2022/12/26 11:04:22;;;;;;;9.10;6.23;;;10.50;97.10;;;10.24;86.28;98073.38;5029712;28;20877;-79
2022/12/26 11:06:52;;;;;;;6.73;5.67;;;10.50;97.20;;;10.05;88.03;98073.19;5030442;28;20499;-78
2022/12/26 11:09:34;;;;;;;9.00;5.87;;;10.30;98.70;;;10.11;88.69;98068.81;5030971;28;20445;-83
2022/12/26 11:12:02;;;;;;;8.80;6.27;;;10.30;99.90;;;9.98;90.04;98059.69;5029316;28;20461;-83
2022/12/26 11:14:36;;;;;;;8.93;6.30;;;10.20;99.90;;;9.99;90.26;98063.25;5025931;28;20978;-83
2022/12/26 11:17:09;;;;;;;6.60;5.50;;;10.20;99.90;;;10.06;89.89;98066.75;5031564;28;20543;-81
2022/12/26 11:19:39;;;;;;;7.23;5.00;;;10.20;99.90;;;10.04;89.82;98066.13;5031426;28;20618;-81
2022/12/26 11:22:26;;;;;;;6.07;5.13;;;10.20;99.90;;;10.11;89.12;98044.53;5022053;28;20460;-81
2022/12/26 11:25:23;;;;;;;8.57;6.30;;;10.30;99.90;;;10.33;88.72;98056.72;5029117;28;20516;-80
2022/12/26 11:27:53;;;;;;;6.17;4.80;;;10.30;99.90;;;10.21;89.51;98058.41;5029896;28;20532;-79
2022/12/26 11:30:30;;;;;;;5.50;5.00;;;10.30;99.90;;;10.17;88.19;98041.81;5030234;28;20451;-81
2022/12/26 11:33:26;;;;;;;10.80;5.50;;;10.40;99.90;;;10.46;87.77;98050.47;5031240;28;20461;-81
2022/12/26 11:36:03;;;;;;;5.17;4.37;;;10.50;99.90;;;10.39;88.46;98043.41;5012182;28;20466;-80
2022/12/26 11:38:38;;;;;;;6.50;4.60;;;10.50;99.90;;;10.39;88.05;98035.28;5031242;28;20456;-80
2022/12/26 11:43:59;;;;;;;4.63;4.10;;;10.60;98.20;;;10.60;86.84;98034.19;5026580;28;20440;-79
2022/12/26 11:46:35;;;;;;;4.20;3.80;;;10.70;99.10;;;10.49;87.03;98041.91;5030856;28;20475;-79
2022/12/26 11:49:05;;;;;;;8.70;4.13;;;10.60;97.70;;;10.50;87.34;98031.97;5030879;28;20521;-82
2022/12/26 11:51:40;;;;;;;4.83;3.90;;;10.60;97.90;;;10.36;86.78;98036.53;5027003;28;20502;-81
2022/12/26 11:54:23;;;;;;;4.60;3.43;;;10.60;96.90;;;10.46;86.34;98047.75;5023759;28;20453;-78
2022/12/26 11:57:09;;;;;;;3.93;3.47;;;10.60;96.90;;;10.61;86.12;98041.25;5034243;28;20493;-79
2022/12/26 11:59:37;;;;;;;3.70;3.40;;;10.60;97.30;;;10.84;84.58;98035.31;5034457;28;20449;-80
2022/12/26 12:02:27;;;;;;;4.00;3.43;;;10.80;96.00;;;10.79;85.09;98034.31;5023178;28;20814;-80
2022/12/26 12:05:06;;;;;;;6.03;3.10;;;10.80;95.40;;;10.77;84.44;98040.75;5029416;28;20568;-77
2022/12/26 12:08:26;;;;;;;3.63;3.33;;;10.80;95.00;;;10.69;84.79;98038.31;5030696;28;20476;-81
2022/12/26 12:11:18;;;;;;;4.03;3.73;;;10.90;95.30;;;10.84;84.58;98045.28;5025996;28;20450;-81
2022/12/26 12:14:12;;;;;;;3.07;2.70;;;10.90;95.50;;;10.59;85.52;98043.34;5031036;28;20510;-81
2022/12/26 12:16:52;;;;;;;3.83;3.23;;;10.80;95.80;;;10.64;86.18;98048.94;5028689;28;20946;-81
2022/12/26 12:19:38;;;;;;;3.70;3.40;;;10.80;96.10;;;10.56;84.89;98032.97;5031230;28;20461;-81
2022/12/26 12:22:43;;;;;;;3.30;3.00;;;10.80;94.90;;;10.52;86.15;98020.91;5030513;28;21281;-80
2022/12/26 12:25:44;;;;;;;3.43;3.00;;;10.70;96.10;;;10.25;86.10;98004.81;5030401;28;20490;-81
2022/12/26 12:28:48;;;;;;;4.60;3.57;;;10.60;95.50;;;10.24;86.35;98011.28;5032206;28;20547;-81
2022/12/26 12:31:29;;;;;;;4.27;2.73;;;10.50;95.50;;;10.48;85.90;98015.97;5028334;28;20512;-81
2022/12/26 12:34:05;;;;;;;5.33;3.23;;;10.60;96.20;;;10.39;85.79;98017.22;5033395;28;20846;-82
2022/12/26 12:36:37;;;;;;;2.80;2.60;;;10.60;95.40;;;10.52;84.42;98016.38;5035313;28;20452;-81
2022/12/26 12:39:12;;;;;;;3.80;3.50;;;10.60;95.20;;;10.31;85.11;98020.16;5034123;28;20467;-76
2022/12/26 12:42:17;;;;;;;3.73;3.33;;;10.60;94.70;;;10.41;84.86;98019.72;5038195;28;20986;-80
2022/12/26 12:45:02;;;;;;;2.60;2.40;;;10.60;95.00;;;10.28;85.27;98023.28;5035325;28;20449;-80
2022/12/26 12:47:43;;;;;;;3.90;2.80;;;10.50;95.10;;;10.51;83.83;98030.06;5036048;28;20523;-81
2022/12/26 12:50:20;;;;;;;2.83;2.63;;;10.60;94.60;;;10.56;84.42;98043.78;5021472;28;20579;-78
2022/12/26 12:52:55;;;;;;;2.20;2.00;;;10.60;94.60;;;10.57;83.48;98034.63;5028328;28;20451;-77